sensor_id;sensor_type;location;lat;lon;timestamp;temperature;humidity
56428;DHT22;42331;53.578;9.760;2023-09-07T00:00:02;18.70;99.90
56428;DHT22;42331;53.578;9.760;2023-09-07T00:02:35;18.60;99.90
56428;DHT22;42331;53.578;9.760;2023-09-07T00:05:07;18.50;99.90
56428;DHT22;42331;53.578;9.760;2023-09-07T00:07:37;18.50;99.90
56428;DHT22;42331;53.578;9.760;2023-09-07T00:10:08;18.40;99.90
56428;DHT22;42331;53.578;9.760;2023-09-07T00:12:39;18.30;99.90
56428;DHT22;42331;53.578;9.760;2023-09-07T00:15:10;18.20;99.90
56428;DHT22;42331;53.578;9.760;2023-09-07T00:17:41;18.20;99.90
56428;DHT22;42331;53.578;9.760;2023-09-07T00:20:11;18.10;99.90
56428;DHT22;42331;53.578;9.760;2023-09-07T00:22:44;18.00;99.90
56428;DHT22;42331;53.578;9.760;2023-09-07T00:25:15;18.00;99.90
56428;DHT22;42331;53.578;9.760;2023-09-07T00:27:46;18.00;99.90
56428;DHT22;42331;53.578;9.760;2023-09-07T00:30:16;18.00;99.90
56428;DHT22;42331;53.578;9.760;2023-09-07T00:32:47;18.00;99.90
56428;DHT22;42331;53.578;9.760;2023-09-07T00:35:18;18.00;99.90
56428;DHT22;42331;53.578;9.760;2023-09-07T00:37:48;18.00;99.90
56428;DHT22;42331;53.578;9.760;2023-09-07T00:40:19;18.00;99.90
56428;DHT22;42331;53.578;9.760;2023-09-07T00:42:50;17.90;99.90
56428;DHT22;42331;53.578;9.760;2023-09-07T00:45:21;17.90;99.90
56428;DHT22;42331;53.578;9.760;2023-09-07T00:47:52;17.90;99.90
56428;DHT22;42331;53.578;9.760;2023-09-07T00:50:23;17.90;99.90
56428;DHT22;42331;53.578;9.760;2023-09-07T00:52:54;17.90;99.90
56428;DHT22;42331;53.578;9.760;2023-09-07T00:55:27;17.90;99.90
56428;DHT22;42331;53.578;9.760;2023-09-07T00:57:57;17.80;99.90
56428;DHT22;42331;53.578;9.760;2023-09-07T01:00:28;17.80;99.90
56428;DHT22;42331;53.578;9.760;2023-09-07T01:02:59;17.80;99.90
56428;DHT22;42331;53.578;9.760;2023-09-07T01:05:41;17.80;99.90
56428;DHT22;42331;53.578;9.760;2023-09-07T01:08:24;17.80;99.90
56428;DHT22;42331;53.578;9.760;2023-09-07T01:10:56;17.80;99.90
56428;DHT22;42331;53.578;9.760;2023-09-07T01:13:27;17.80;99.90
56428;DHT22;42331;53.578;9.760;2023-09-07T01:15:58;17.80;99.90
56428;DHT22;42331;53.578;9.760;2023-09-07T01:18:29;17.80;99.90
56428;DHT22;42331;53.578;9.760;2023-09-07T01:21:00;17.80;99.90
56428;DHT22;42331;53.578;9.760;2023-09-07T01:23:37;17.80;99.90
56428;DHT22;42331;53.578;9.760;2023-09-07T01:26:09;17.80;99.90
56428;DHT22;42331;53.578;9.760;2023-09-07T01:28:40;17.80;99.90
56428;DHT22;42331;53.578;9.760;2023-09-07T01:31:10;17.90;99.90
56428;DHT22;42331;53.578;9.760;2023-09-07T01:33:41;17.90;99.90
56428;DHT22;42331;53.578;9.760;2023-09-07T01:36:12;17.90;99.90
56428;DHT22;42331;53.578;9.760;2023-09-07T01:38:43;17.90;99.90
56428;DHT22;42331;53.578;9.760;2023-09-07T01:41:13;17.90;99.90
56428;DHT22;42331;53.578;9.760;2023-09-07T01:43:44;17.90;99.90
56428;DHT22;42331;53.578;9.760;2023-09-07T01:46:14;18.00;99.90
56428;DHT22;42331;53.578;9.760;2023-09-07T01:48:45;18.00;99.90
56428;DHT22;42331;53.578;9.760;2023-09-07T01:51:16;18.00;99.90
56428;DHT22;42331;53.578;9.760;2023-09-07T01:53:49;18.00;99.90
56428;DHT22;42331;53.578;9.760;2023-09-07T01:56:20;18.00;99.90
56428;DHT22;42331;53.578;9.760;2023-09-07T01:58:51;18.00;99.90
56428;DHT22;42331;53.578;9.760;2023-09-07T02:01:29;18.00;99.90
56428;DHT22;42331;53.578;9.760;2023-09-07T02:04:00;18.00;99.90
56428;DHT22;42331;53.578;9.760;2023-09-07T02:06:31;18.00;99.90
56428;DHT22;42331;53.578;9.760;2023-09-07T02:09:02;18.00;99.90
56428;DHT22;42331;53.578;9.760;2023-09-07T02:11:34;18.00;99.90
56428;DHT22;42331;53.578;9.760;2023-09-07T02:14:05;18.00;99.90
56428;DHT22;42331;53.578;9.760;2023-09-07T02:16:36;18.00;99.90
56428;DHT22;42331;53.578;9.760;2023-09-07T02:19:06;18.00;99.90
56428;DHT22;42331;53.578;9.760;2023-09-07T02:21:37;18.00;99.90
56428;DHT22;42331;53.578;9.760;2023-09-07T02:24:08;17.90;99.90
56428;DHT22;42331;53.578;9.760;2023-09-07T02:26:38;17.80;99.90
56428;DHT22;42331;53.578;9.760;2023-09-07T02:29:15;17.80;99.90
56428;DHT22;42331;53.578;9.760;2023-09-07T02:31:45;17.80;99.90
56428;DHT22;42331;53.578;9.760;2023-09-07T02:37:17;17.70;99.90
56428;DHT22;42331;53.578;9.760;2023-09-07T02:39:47;17.60;99.90
56428;DHT22;42331;53.578;9.760;2023-09-07T02:42:18;17.60;99.90
56428;DHT22;42331;53.578;9.760;2023-09-07T02:44:48;17.60;99.90
56428;DHT22;42331;53.578;9.760;2023-09-07T02:47:19;17.50;99.90
56428;DHT22;42331;53.578;9.760;2023-09-07T02:49:50;17.50;99.90
56428;DHT22;42331;53.578;9.760;2023-09-07T02:52:20;17.50;99.90
56428;DHT22;42331;53.578;9.760;2023-09-07T02:54:51;17.40;99.90
56428;DHT22;42331;53.578;9.760;2023-09-07T02:57:21;17.40;99.90
56428;DHT22;42331;53.578;9.760;2023-09-07T02:59:53;17.40;99.90
56428;DHT22;42331;53.578;9.760;2023-09-07T03:02:23;17.30;99.90
56428;DHT22;42331;53.578;9.760;2023-09-07T03:04:54;17.30;99.90
56428;DHT22;42331;53.578;9.760;2023-09-07T03:07:32;17.30;99.90
56428;DHT22;42331;53.578;9.760;2023-09-07T03:10:03;17.30;99.90
56428;DHT22;42331;53.578;9.760;2023-09-07T03:12:34;17.30;99.90
56428;DHT22;42331;53.578;9.760;2023-09-07T03:15:05;17.30;99.90
56428;DHT22;42331;53.578;9.760;2023-09-07T03:17:36;17.30;99.90
56428;DHT22;42331;53.578;9.760;2023-09-07T03:20:07;17.20;99.90
56428;DHT22;42331;53.578;9.760;2023-09-07T03:22:44;17.20;99.90
56428;DHT22;42331;53.578;9.760;2023-09-07T03:25:15;17.20;99.90
56428;DHT22;42331;53.578;9.760;2023-09-07T03:27:46;17.20;99.90
56428;DHT22;42331;53.578;9.760;2023-09-07T03:30:17;17.20;99.90
56428;DHT22;42331;53.578;9.760;2023-09-07T03:32:47;17.20;99.90
56428;DHT22;42331;53.578;9.760;2023-09-07T03:35:18;17.20;99.90
56428;DHT22;42331;53.578;9.760;2023-09-07T03:37:49;17.20;99.90
56428;DHT22;42331;53.578;9.760;2023-09-07T03:40:20;17.20;99.90
56428;DHT22;42331;53.578;9.760;2023-09-07T03:42:51;17.20;99.90
56428;DHT22;42331;53.578;9.760;2023-09-07T03:45:21;17.20;99.90
56428;DHT22;42331;53.578;9.760;2023-09-07T03:47:52;17.20;99.90
56428;DHT22;42331;53.578;9.760;2023-09-07T03:50:23;17.20;99.90
56428;DHT22;42331;53.578;9.760;2023-09-07T03:52:53;17.20;99.90
56428;DHT22;42331;53.578;9.760;2023-09-07T03:55:24;17.20;99.90
56428;DHT22;42331;53.578;9.760;2023-09-07T03:57:55;17.20;99.90
56428;DHT22;42331;53.578;9.760;2023-09-07T04:00:25;17.20;99.90
56428;DHT22;42331;53.578;9.760;2023-09-07T04:02:56;17.20;99.90
56428;DHT22;42331;53.578;9.760;2023-09-07T04:05:27;17.20;99.90
56428;DHT22;42331;53.578;9.760;2023-09-07T04:07:57;17.10;99.90
56428;DHT22;42331;53.578;9.760;2023-09-07T04:10:28;17.10;99.90
56428;DHT22;42331;53.578;9.760;2023-09-07T04:12:59;17.10;99.90
56428;DHT22;42331;53.578;9.760;2023-09-07T04:15:29;17.10;99.90
56428;DHT22;42331;53.578;9.760;2023-09-07T04:18:01;17.00;99.90
56428;DHT22;42331;53.578;9.760;2023-09-07T04:20:32;17.00;99.90
56428;DHT22;42331;53.578;9.760;2023-09-07T04:23:03;16.90;99.90
56428;DHT22;42331;53.578;9.760;2023-09-07T04:25:34;16.90;99.90
56428;DHT22;42331;53.578;9.760;2023-09-07T04:28:05;16.90;99.90
56428;DHT22;42331;53.578;9.760;2023-09-07T04:30:41;16.80;99.90
56428;DHT22;42331;53.578;9.760;2023-09-07T04:33:11;16.80;99.90
56428;DHT22;42331;53.578;9.760;2023-09-07T04:35:42;16.70;99.90
56428;DHT22;42331;53.578;9.760;2023-09-07T04:38:13;16.80;99.90
56428;DHT22;42331;53.578;9.760;2023-09-07T04:40:43;16.80;99.90
56428;DHT22;42331;53.578;9.760;2023-09-07T04:43:14;16.80;99.90
56428;DHT22;42331;53.578;9.760;2023-09-07T04:45:48;16.80;99.90
56428;DHT22;42331;53.578;9.760;2023-09-07T04:48:18;16.80;99.90
56428;DHT22;42331;53.578;9.760;2023-09-07T04:50:56;16.80;99.90
56428;DHT22;42331;53.578;9.760;2023-09-07T04:53:29;16.80;99.90
56428;DHT22;42331;53.578;9.760;2023-09-07T04:56:00;16.80;99.90
56428;DHT22;42331;53.578;9.760;2023-09-07T04:58:34;16.80;99.90
56428;DHT22;42331;53.578;9.760;2023-09-07T05:01:16;16.80;99.90
56428;DHT22;42331;53.578;9.760;2023-09-07T05:03:47;16.80;99.90
56428;DHT22;42331;53.578;9.760;2023-09-07T05:06:27;16.80;99.90
56428;DHT22;42331;53.578;9.760;2023-09-07T05:08:58;16.80;99.90
56428;DHT22;42331;53.578;9.760;2023-09-07T05:11:29;16.90;99.90
56428;DHT22;42331;53.578;9.760;2023-09-07T05:14:00;16.90;99.90
56428;DHT22;42331;53.578;9.760;2023-09-07T05:16:31;16.90;99.90
56428;DHT22;42331;53.578;9.760;2023-09-07T05:19:01;17.00;99.90
56428;DHT22;42331;53.578;9.760;2023-09-07T05:21:32;17.10;99.90
56428;DHT22;42331;53.578;9.760;2023-09-07T05:24:03;17.10;99.90
56428;DHT22;42331;53.578;9.760;2023-09-07T05:26:34;17.20;99.90
56428;DHT22;42331;53.578;9.760;2023-09-07T05:29:04;17.20;99.90
56428;DHT22;42331;53.578;9.760;2023-09-07T05:31:35;17.30;99.90
56428;DHT22;42331;53.578;9.760;2023-09-07T05:34:06;17.30;99.90
56428;DHT22;42331;53.578;9.760;2023-09-07T05:36:37;17.40;99.90
56428;DHT22;42331;53.578;9.760;2023-09-07T05:39:08;17.40;99.90
56428;DHT22;42331;53.578;9.760;2023-09-07T05:41:38;17.40;99.90
56428;DHT22;42331;53.578;9.760;2023-09-07T05:44:09;17.50;99.90
56428;DHT22;42331;53.578;9.760;2023-09-07T05:46:40;17.60;99.90
56428;DHT22;42331;53.578;9.760;2023-09-07T05:49:10;17.60;99.90
56428;DHT22;42331;53.578;9.760;2023-09-07T05:51:41;17.70;99.90
56428;DHT22;42331;53.578;9.760;2023-09-07T05:54:11;17.80;99.90
